createdAt,value
2022-08-05T00:01:28.135Z,3.50
2022-08-05T00:03:56.972Z,3.00
2022-08-05T00:06:32.425Z,3.30
2022-08-05T00:09:00.687Z,3.08
2022-08-05T00:11:34.428Z,3.40
2022-08-05T00:14:02.164Z,3.22
2022-08-05T00:16:35.557Z,3.35
2022-08-05T00:19:04.849Z,3.35
2022-08-05T00:21:35.857Z,3.08
2022-08-05T00:24:09.896Z,3.33
2022-08-05T00:26:37.397Z,3.40
2022-08-05T00:29:04.004Z,3.10
2022-08-05T00:31:53.884Z,3.30
2022-08-05T00:34:53.308Z,3.38
2022-08-05T00:37:10.483Z,3.30
2022-08-05T00:39:57.418Z,3.00
2022-08-05T00:42:33.346Z,3.20
2022-08-05T00:45:00.906Z,3.25
2022-08-05T00:47:31.624Z,3.30
2022-08-05T00:50:14.846Z,3.35
2022-08-05T00:52:41.786Z,3.50
2022-08-05T00:55:12.303Z,3.28
2022-08-05T00:57:57.868Z,3.40
2022-08-05T01:00:30.241Z,3.35
2022-08-05T01:02:59.742Z,3.38
2022-08-05T01:05:27.381Z,3.10
2022-08-05T01:08:40.002Z,3.25
2022-08-05T01:10:51.595Z,3.38
2022-08-05T01:13:57.835Z,3.35
2022-08-05T01:16:49.070Z,3.40
2022-08-05T01:19:21.692Z,3.08
2022-08-05T01:22:18.787Z,3.47
2022-08-05T01:24:50.847Z,3.83
2022-08-05T01:27:55.905Z,3.70
2022-08-05T01:30:33.754Z,3.60
2022-08-05T01:33:06.099Z,3.50
2022-08-05T01:35:52.214Z,3.10
2022-08-05T01:38:27.482Z,3.38
2022-08-05T01:41:01.392Z,3.70
2022-08-05T01:43:29.492Z,3.33
2022-08-05T01:45:58.748Z,3.53
2022-08-05T01:48:36.695Z,3.50
2022-08-05T01:51:12.405Z,3.85
2022-08-05T01:53:56.898Z,3.50
2022-08-05T01:58:09.563Z,3.55
2022-08-05T01:59:19.675Z,3.30
2022-08-05T02:01:49.581Z,3.70
2022-08-05T02:04:19.611Z,2.95
2022-08-05T02:06:46.324Z,3.45
2022-08-05T02:09:16.318Z,3.60
2022-08-05T02:11:53.193Z,3.33
2022-08-05T02:14:40.114Z,3.65
2022-08-05T02:18:28.384Z,3.33
2022-08-05T02:20:20.627Z,3.50
2022-08-05T02:22:56.919Z,3.50
2022-08-05T02:25:33.013Z,3.70
2022-08-05T02:28:02.360Z,3.40
2022-08-05T02:30:51.702Z,3.58
2022-08-05T02:33:24.394Z,3.28
2022-08-05T02:36:05.008Z,3.53
2022-08-05T02:38:35.531Z,3.70
2022-08-05T02:41:14.570Z,3.55
2022-08-05T02:44:02.263Z,3.60
2022-08-05T02:46:33.631Z,3.35
2022-08-05T02:49:01.746Z,3.80
2022-08-05T02:52:02.882Z,3.50
2022-08-05T02:54:34.998Z,3.72
2022-08-05T02:57:10.194Z,3.60
2022-08-05T02:59:54.351Z,3.70
2022-08-05T03:02:27.564Z,3.63
2022-08-05T03:04:57.390Z,3.60
2022-08-05T03:08:00.157Z,3.70
2022-08-05T03:10:15.800Z,3.78
2022-08-05T03:12:51.968Z,3.65
2022-08-05T03:17:46.540Z,3.65
2022-08-05T03:20:13.519Z,3.45
2022-08-05T03:22:44.128Z,4.18
2022-08-05T03:25:32.834Z,3.90
2022-08-05T03:28:08.328Z,3.67
2022-08-05T03:30:36.634Z,3.42
2022-08-05T03:33:07.360Z,3.60
2022-08-05T03:35:41.173Z,3.20
2022-08-05T03:38:11.679Z,3.83
2022-08-05T03:40:45.254Z,3.58
2022-08-05T03:43:58.814Z,3.50
2022-08-05T03:46:02.667Z,3.63
2022-08-05T03:48:30.392Z,3.28
2022-08-05T03:52:48.779Z,3.60
2022-08-05T03:56:00.824Z,3.72
2022-08-05T03:57:02.240Z,3.42
2022-08-05T03:59:58.391Z,3.28
2022-08-05T04:02:37.544Z,3.55
2022-08-05T04:05:09.895Z,3.40
2022-08-05T04:07:57.287Z,3.58
2022-08-05T04:10:31.981Z,3.40
2022-08-05T04:13:00.641Z,3.60
2022-08-05T04:15:33.286Z,3.67
2022-08-05T04:18:06.688Z,3.67
2022-08-05T04:20:34.069Z,2.90
2022-08-05T04:23:00.742Z,3.42
2022-08-05T04:25:58.047Z,3.20
2022-08-05T04:28:14.654Z,3.00
2022-08-05T04:30:41.738Z,3.38
2022-08-05T04:33:09.569Z,3.00
2022-08-05T04:36:10.634Z,3.20
2022-08-05T04:38:22.915Z,3.10
2022-08-05T04:41:07.326Z,3.38
2022-08-05T04:43:35.990Z,3.20
2022-08-05T04:46:05.009Z,3.10
2022-08-05T04:48:31.957Z,3.20
2022-08-05T04:51:02.975Z,2.83
2022-08-05T04:53:36.562Z,2.95
2022-08-05T04:56:32.810Z,3.10
2022-08-05T04:58:56.534Z,2.85
2022-08-05T05:02:07.981Z,2.90
2022-08-05T05:04:10.499Z,3.10
2022-08-05T05:06:40.906Z,3.33
2022-08-05T05:09:17.571Z,3.42
2022-08-05T05:11:54.465Z,3.30
2022-08-05T05:14:27.708Z,3.20
2022-08-05T05:17:00.362Z,3.10
2022-08-05T05:19:36.445Z,2.70
2022-08-05T05:22:22.718Z,2.72
2022-08-05T05:24:59.025Z,2.78
2022-08-05T05:27:45.867Z,2.50
2022-08-05T05:30:31.203Z,2.90
2022-08-05T05:33:09.215Z,2.90
2022-08-05T05:35:45.290Z,2.97
2022-08-05T05:38:13.849Z,2.72
2022-08-05T05:40:50.089Z,2.60
2022-08-05T05:43:27.896Z,2.60
2022-08-05T05:46:12.110Z,2.67
2022-08-05T05:48:44.066Z,2.58
2022-08-05T05:51:15.812Z,2.50
2022-08-05T05:53:54.092Z,3.08
2022-08-05T05:56:32.675Z,2.50
2022-08-05T05:59:03.523Z,2.40
2022-08-05T06:01:38.130Z,2.55
2022-08-05T06:04:11.668Z,2.40
2022-08-05T06:06:46.615Z,2.33
2022-08-05T06:09:16.604Z,2.28
2022-08-05T06:11:59.419Z,2.72
2022-08-05T06:14:29.749Z,2.30
2022-08-05T06:16:57.132Z,2.40
2022-08-05T06:19:34.079Z,2.40
2022-08-05T06:22:06.640Z,2.60
2022-08-05T06:24:35.065Z,2.60
2022-08-05T06:27:02.213Z,2.40
2022-08-05T06:29:48.927Z,2.15
2022-08-05T06:32:25.101Z,2.20
2022-08-05T06:34:56.524Z,2.20
2022-08-05T06:37:56.611Z,2.17
2022-08-05T06:40:20.535Z,2.17
2022-08-05T06:42:52.083Z,2.17
2022-08-05T06:46:02.929Z,2.10
2022-08-05T06:48:36.685Z,1.92
2022-08-05T06:50:56.477Z,2.20
2022-08-05T06:53:28.572Z,2.65
2022-08-05T06:56:00.312Z,2.50
2022-08-05T06:58:34.836Z,2.10
2022-08-05T07:01:06.019Z,2.20
2022-08-05T07:03:33.724Z,2.13
2022-08-05T07:06:05.845Z,2.10
2022-08-05T07:08:40.580Z,2.20
2022-08-05T07:11:15.239Z,2.58
2022-08-05T07:14:29.395Z,2.20
2022-08-05T07:17:58.779Z,2.33
2022-08-05T07:22:35.745Z,2.20
2022-08-05T07:25:23.620Z,2.17
2022-08-05T07:27:58.422Z,2.42
2022-08-05T07:30:34.712Z,2.45
2022-08-05T07:33:09.270Z,2.40
2022-08-05T07:36:02.653Z,2.20
2022-08-05T07:38:33.580Z,2.20
2022-08-05T07:42:14.242Z,2.22
2022-08-05T07:44:06.371Z,2.30
2022-08-05T07:46:41.291Z,2.55
2022-08-05T07:49:14.912Z,2.20
2022-08-05T07:51:54.056Z,1.90
2022-08-05T07:54:31.511Z,2.20
2022-08-05T07:57:16.941Z,2.10
2022-08-05T07:59:50.933Z,2.40
2022-08-05T08:02:18.175Z,2.30
2022-08-05T08:04:47.298Z,2.22
2022-08-05T08:09:42.136Z,2.33
2022-08-05T08:12:20.974Z,2.10
2022-08-05T08:14:55.449Z,2.10
2022-08-05T08:17:23.575Z,2.30
2022-08-05T08:20:21.419Z,2.47
2022-08-05T08:22:37.399Z,2.15
2022-08-05T08:25:16.201Z,2.10
2022-08-05T08:27:47.398Z,2.30
2022-08-05T08:30:30.027Z,2.20
2022-08-05T08:33:08.234Z,2.25
2022-08-05T08:35:40.972Z,2.20
2022-08-05T08:38:08.696Z,2.20
2022-08-05T08:40:50.494Z,2.00
2022-08-05T08:45:17.065Z,2.30
2022-08-05T08:46:06.413Z,1.90
2022-08-05T08:48:59.365Z,2.33
2022-08-05T08:52:03.553Z,2.03
2022-08-05T08:54:14.375Z,2.30
2022-08-05T08:56:47.748Z,1.95
2022-08-05T08:59:19.351Z,2.40
2022-08-05T09:01:57.326Z,1.98
2022-08-05T09:04:30.574Z,1.95
2022-08-05T09:06:57.830Z,1.90
2022-08-05T09:09:25.412Z,1.88
2022-08-05T09:11:54.776Z,2.08
2022-08-05T09:14:58.531Z,2.05
2022-08-05T09:17:40.908Z,2.00
2022-08-05T09:20:02.729Z,1.70
2022-08-05T09:23:09.579Z,1.98
2022-08-05T09:26:00.196Z,2.20
2022-08-05T09:28:32.182Z,2.10
2022-08-05T09:31:44.008Z,2.10
2022-08-05T09:34:05.951Z,2.00
2022-08-05T09:36:55.186Z,1.90
2022-08-05T09:39:27.817Z,2.00
2022-08-05T09:42:11.371Z,1.90
2022-08-05T09:44:49.305Z,1.90
2022-08-05T09:47:23.541Z,1.77
2022-08-05T09:50:01.951Z,1.90
2022-08-05T09:52:35.563Z,1.70
2022-08-05T09:55:06.289Z,1.90
2022-08-05T09:57:39.747Z,1.80
2022-08-05T10:00:16.297Z,1.80
2022-08-05T10:02:51.594Z,1.75
2022-08-05T10:05:20.541Z,1.80
2022-08-05T10:08:34.653Z,1.88
2022-08-05T10:10:45.633Z,1.80
2022-08-05T10:13:27.316Z,1.75
2022-08-05T10:16:07.808Z,1.80
2022-08-05T10:21:08.428Z,1.77
2022-08-05T10:23:56.412Z,1.65
2022-08-05T10:26:32.660Z,1.60
2022-08-05T10:29:00.977Z,1.60
2022-08-05T10:32:54.653Z,1.60
2022-08-05T10:34:14.511Z,1.50
2022-08-05T10:36:44.155Z,1.50
2022-08-05T10:39:59.214Z,1.67
2022-08-05T10:42:33.970Z,1.60
2022-08-05T10:45:01.836Z,1.50
2022-08-05T10:47:34.349Z,1.30
2022-08-05T10:50:33.130Z,1.55
2022-08-05T10:53:01.083Z,1.40
2022-08-05T10:55:30.320Z,1.45
2022-08-05T10:58:11.400Z,1.55
2022-08-05T11:00:42.210Z,1.50
2022-08-05T11:03:25.053Z,1.50
2022-08-05T11:06:16.094Z,1.67
2022-08-05T11:09:32.056Z,1.70
2022-08-05T11:12:37.311Z,1.70
2022-08-05T11:15:20.068Z,1.42
2022-08-05T11:17:59.782Z,1.50
2022-08-05T11:20:34.181Z,1.55
2022-08-05T11:23:08.788Z,1.60
2022-08-05T11:26:05.698Z,1.70
2022-08-05T11:28:33.440Z,1.50
2022-08-05T11:31:06.482Z,1.40
2022-08-05T11:33:46.302Z,1.55
2022-08-05T11:36:34.256Z,1.23
2022-08-05T11:39:08.935Z,1.40
2022-08-05T11:41:58.072Z,1.50
2022-08-05T11:44:53.447Z,1.38
2022-08-05T11:47:22.144Z,1.30
2022-08-05T11:50:08.296Z,1.42
2022-08-05T11:52:35.215Z,1.40
2022-08-05T11:55:07.336Z,1.38
2022-08-05T11:58:08.164Z,1.40
2022-08-05T12:00:31.218Z,1.40
2022-08-05T12:02:58.003Z,1.50
2022-08-05T12:05:36.312Z,1.35
2022-08-05T12:08:09.875Z,1.50
2022-08-05T12:10:45.258Z,1.50
2022-08-05T12:13:28.216Z,1.52
2022-08-05T12:16:14.590Z,1.58
2022-08-05T12:18:49.449Z,1.50
2022-08-05T12:21:39.005Z,1.40
2022-08-05T12:24:14.118Z,1.50
2022-08-05T12:26:53.017Z,1.50
2022-08-05T12:29:23.718Z,1.50
2022-08-05T12:31:55.652Z,1.60
2022-08-05T12:34:28.238Z,1.52
2022-08-05T12:36:56.977Z,1.45
2022-08-05T12:39:28.052Z,1.25
2022-08-05T12:42:02.511Z,1.50
2022-08-05T12:44:33.838Z,1.30
2022-08-05T12:47:02.046Z,1.30
2022-08-05T12:50:04.221Z,1.67
2022-08-05T12:52:32.445Z,1.40
2022-08-05T12:55:36.671Z,1.60
2022-08-05T12:58:50.693Z,1.50
2022-08-05T13:02:02.062Z,1.70
2022-08-05T13:03:42.250Z,1.60
2022-08-05T13:06:14.445Z,1.58
2022-08-05T13:08:50.664Z,1.70
2022-08-05T13:11:25.616Z,1.50
2022-08-05T13:14:19.732Z,1.40
2022-08-05T13:16:57.766Z,1.60
2022-08-05T13:19:40.267Z,1.45
2022-08-05T13:22:15.039Z,1.40
2022-08-05T13:25:00.378Z,1.70
2022-08-05T13:27:38.184Z,1.85
2022-08-05T13:30:34.220Z,1.60
2022-08-05T13:32:53.935Z,1.40
2022-08-05T13:35:43.204Z,1.70
2022-08-05T13:38:11.524Z,1.60
2022-08-05T13:40:51.310Z,1.70
2022-08-05T13:43:22.089Z,1.60
2022-08-05T13:45:49.140Z,1.80
2022-08-05T13:48:58.712Z,1.80
2022-08-05T13:51:09.541Z,1.90
2022-08-05T13:53:47.992Z,1.77
2022-08-05T13:56:18.336Z,1.50
2022-08-05T13:58:52.829Z,1.80
2022-08-05T14:01:25.922Z,1.70
2022-08-05T14:04:21.485Z,1.60
2022-08-05T14:06:48.095Z,1.77
2022-08-05T14:09:25.527Z,1.60
2022-08-05T14:12:04.138Z,1.60
2022-08-05T14:14:43.063Z,1.65
2022-08-05T14:17:16.995Z,1.80
2022-08-05T14:19:54.645Z,2.00
2022-08-05T14:24:56.827Z,1.80
2022-08-05T14:27:23.714Z,1.60
2022-08-05T14:29:56.370Z,1.60
2022-08-05T14:32:27.264Z,2.03
2022-08-05T14:34:57.023Z,1.77
2022-08-05T14:37:45.452Z,1.80
2022-08-05T14:40:14.089Z,1.88
2022-08-05T14:42:43.245Z,1.75
2022-08-05T14:45:10.259Z,1.92
2022-08-05T14:48:05.267Z,1.63
2022-08-05T14:50:25.353Z,1.65
2022-08-05T14:52:57.795Z,1.92
2022-08-05T14:55:28.702Z,1.90
2022-08-05T14:58:10.932Z,1.80
2022-08-05T15:00:59.830Z,1.80
2022-08-05T15:03:34.137Z,1.85
2022-08-05T15:06:12.754Z,1.77
2022-08-05T15:08:59.145Z,2.10
2022-08-05T15:11:51.788Z,2.00
2022-08-05T15:14:33.314Z,1.90
2022-08-05T15:17:01.033Z,1.92
2022-08-05T15:19:27.647Z,2.10
2022-08-05T15:21:54.548Z,1.90
2022-08-05T15:24:27.577Z,1.90
2022-08-05T15:26:54.133Z,1.98
2022-08-05T15:29:22.964Z,2.00
2022-08-05T15:31:52.954Z,2.00
2022-08-05T15:34:32.869Z,1.90
2022-08-05T15:37:06.256Z,2.03
2022-08-05T15:40:59.733Z,1.70
2022-08-05T15:42:53.965Z,1.98
2022-08-05T15:45:18.667Z,2.10
2022-08-05T15:47:49.704Z,2.30
2022-08-05T15:50:21.070Z,2.10
2022-08-05T15:52:55.008Z,2.17
2022-08-05T15:55:24.497Z,2.28
2022-08-05T15:57:55.259Z,2.15
2022-08-05T16:00:42.926Z,2.08
2022-08-05T16:03:12.901Z,2.30
2022-08-05T16:05:41.727Z,2.30
2022-08-05T16:08:08.613Z,2.08
2022-08-05T16:10:35.326Z,2.20
2022-08-05T16:13:02.814Z,2.05
2022-08-05T16:15:32.539Z,1.90
2022-08-05T16:18:00.578Z,2.25
2022-08-05T16:20:30.815Z,2.40
2022-08-05T16:22:59.077Z,2.17
2022-08-05T16:25:33.821Z,2.30
2022-08-05T16:28:05.315Z,2.03
2022-08-05T16:30:34.205Z,2.42
2022-08-05T16:33:04.509Z,2.25
2022-08-05T16:35:32.410Z,2.40
2022-08-05T16:38:03.235Z,2.08
2022-08-05T16:40:52.316Z,2.17
2022-08-05T16:43:25.782Z,2.10
2022-08-05T16:46:04.034Z,2.25
2022-08-05T16:48:37.867Z,1.90
2022-08-05T16:51:08.994Z,2.25
2022-08-05T16:54:04.928Z,2.13
2022-08-05T16:56:29.882Z,2.22
2022-08-05T16:58:57.816Z,2.40
2022-08-05T17:01:24.675Z,2.30
2022-08-05T17:03:51.873Z,2.30
2022-08-05T17:06:19.037Z,2.22
2022-08-05T17:08:54.347Z,2.25
2022-08-05T17:11:23.781Z,2.63
2022-08-05T17:14:00.601Z,2.45
2022-08-05T17:16:37.637Z,2.50
2022-08-05T17:19:07.853Z,2.70
2022-08-05T17:21:37.351Z,2.45
2022-08-05T17:24:14.267Z,2.72
2022-08-05T17:26:53.544Z,2.90
2022-08-05T17:29:39.907Z,2.60
2022-08-05T17:32:17.131Z,2.97
2022-08-05T17:34:48.371Z,3.10
2022-08-05T17:37:40.521Z,3.08
2022-08-05T17:40:10.090Z,3.15
2022-08-05T17:42:41.738Z,3.25
2022-08-05T17:45:21.331Z,2.83
2022-08-05T17:47:54.398Z,3.15
2022-08-05T17:50:28.150Z,3.40
2022-08-05T17:52:55.957Z,2.97
2022-08-05T17:55:27.348Z,3.00
2022-08-05T17:58:02.065Z,3.22
2022-08-05T18:00:29.494Z,2.90
2022-08-05T18:02:56.482Z,3.20
2022-08-05T18:05:23.883Z,3.10
2022-08-05T18:07:54.718Z,3.13
2022-08-05T18:10:25.003Z,3.10
2022-08-05T18:12:52.284Z,2.97
2022-08-05T18:15:18.924Z,3.13
2022-08-05T18:18:00.134Z,3.10
2022-08-05T18:20:31.935Z,3.15
2022-08-05T18:25:45.589Z,2.67
2022-08-05T18:28:16.642Z,3.10
2022-08-05T18:30:45.668Z,3.10
2022-08-05T18:33:17.712Z,3.28
2022-08-05T18:36:03.409Z,3.50
2022-08-05T18:38:35.952Z,3.22
2022-08-05T18:41:53.666Z,3.40
2022-08-05T18:43:54.132Z,3.30
2022-08-05T18:46:20.850Z,3.30
2022-08-05T18:48:51.956Z,3.58
2022-08-05T18:52:06.258Z,3.72
2022-08-05T18:54:31.717Z,3.83
2022-08-05T18:57:01.059Z,3.83
2022-08-05T19:02:26.991Z,3.95
2022-08-05T19:05:02.733Z,3.30
2022-08-05T19:07:45.861Z,3.60
2022-08-05T19:10:14.548Z,3.90
2022-08-05T19:12:41.342Z,3.60
2022-08-05T19:15:25.152Z,4.00
2022-08-05T19:18:08.739Z,4.20
2022-08-05T19:20:36.891Z,4.25
2022-08-05T19:23:07.688Z,3.78
2022-08-05T19:25:38.172Z,3.90
2022-08-05T19:28:09.907Z,3.80
2022-08-05T19:30:36.672Z,4.00
2022-08-05T19:33:05.140Z,3.70
2022-08-05T19:35:55.729Z,3.30
2022-08-05T19:38:24.542Z,3.90
2022-08-05T19:40:53.609Z,3.90
2022-08-05T19:44:03.871Z,4.10
2022-08-05T19:46:06.794Z,3.72
2022-08-05T19:48:53.343Z,3.90
2022-08-05T19:51:56.602Z,3.78
2022-08-05T19:54:26.649Z,3.75
2022-08-05T19:56:55.230Z,3.70
2022-08-05T19:59:56.170Z,4.10
2022-08-05T20:02:08.667Z,3.80
2022-08-05T20:04:36.906Z,3.47
2022-08-05T20:07:03.579Z,3.70
2022-08-05T20:09:54.567Z,3.90
2022-08-05T20:12:23.647Z,3.60
2022-08-05T20:14:52.304Z,3.58
2022-08-05T20:17:23.482Z,3.20
2022-08-05T20:19:56.751Z,3.58
2022-08-05T20:22:24.229Z,3.60
2022-08-05T20:24:53.841Z,3.60
2022-08-05T20:27:21.063Z,3.40
2022-08-05T20:29:58.222Z,3.60
2022-08-05T20:32:27.265Z,3.42
2022-08-05T20:34:54.538Z,3.13
2022-08-05T20:38:04.721Z,3.20
2022-08-05T20:40:09.500Z,3.33
2022-08-05T20:42:36.283Z,3.10
2022-08-05T20:45:04.497Z,3.10
2022-08-05T20:47:33.302Z,3.10
2022-08-05T20:50:02.100Z,3.20
2022-08-05T20:52:29.749Z,3.30
2022-08-05T20:55:54.343Z,3.30
2022-08-05T20:57:44.848Z,3.20
2022-08-05T21:00:35.086Z,3.42
2022-08-05T21:03:06.129Z,3.42
2022-08-05T21:05:48.098Z,3.10
2022-08-05T21:08:28.115Z,3.17
2022-08-05T21:11:15.136Z,3.50
2022-08-05T21:13:59.425Z,3.22
2022-08-05T21:16:29.949Z,3.20
2022-08-05T21:19:00.177Z,3.10
2022-08-05T21:21:44.522Z,3.50
2022-08-05T21:24:16.212Z,3.43
2022-08-05T21:26:53.650Z,3.15
2022-08-05T21:29:31.301Z,3.00
2022-08-05T21:31:59.715Z,3.20
2022-08-05T21:34:28.188Z,3.20
2022-08-05T21:36:54.993Z,3.53
2022-08-05T21:39:26.907Z,3.30
2022-08-05T21:42:01.147Z,3.50
2022-08-05T21:44:32.115Z,3.13
2022-08-05T21:46:59.473Z,4.15
2022-08-05T21:49:48.386Z,3.20
2022-08-05T21:52:23.054Z,3.20
2022-08-05T21:54:55.592Z,3.47
2022-08-05T21:57:31.185Z,3.30
2022-08-05T22:00:10.844Z,3.13
2022-08-05T22:02:42.485Z,3.22
2022-08-05T22:05:10.644Z,3.20
2022-08-05T22:07:39.889Z,3.42
2022-08-05T22:10:26.669Z,3.47
2022-08-05T22:12:59.088Z,3.33
2022-08-05T22:16:00.887Z,3.30
2022-08-05T22:18:24.892Z,3.55
2022-08-05T22:20:52.801Z,3.40
2022-08-05T22:24:01.006Z,3.10
2022-08-05T22:26:49.739Z,3.40
2022-08-05T22:29:18.674Z,3.33
2022-08-05T22:31:45.754Z,3.53
2022-08-05T22:34:28.193Z,3.40
2022-08-05T22:36:56.952Z,4.10
2022-08-05T22:42:09.811Z,3.20
2022-08-05T22:44:38.686Z,3.20
2022-08-05T22:47:06.035Z,3.30
2022-08-05T22:50:17.760Z,3.60
2022-08-05T22:52:30.246Z,3.70
2022-08-05T22:55:01.748Z,3.30
2022-08-05T22:57:34.129Z,3.35
2022-08-05T23:00:07.754Z,3.92
2022-08-05T23:02:35.910Z,4.03
2022-08-05T23:05:12.940Z,3.30
2022-08-05T23:07:45.005Z,3.47
2022-08-05T23:10:14.975Z,3.10
2022-08-05T23:12:43.826Z,3.60
2022-08-05T23:15:11.923Z,3.50
2022-08-05T23:18:01.699Z,3.20
2022-08-05T23:20:25.411Z,3.30
2022-08-05T23:22:56.175Z,3.50
2022-08-05T23:25:52.524Z,3.22
2022-08-05T23:28:10.969Z,3.50
2022-08-05T23:30:39.972Z,3.30
2022-08-05T23:33:22.140Z,3.17
2022-08-05T23:35:55.886Z,3.55
2022-08-05T23:38:24.184Z,3.33
2022-08-05T23:40:52.736Z,3.33
2022-08-05T23:43:25.206Z,3.40
2022-08-05T23:46:20.369Z,3.50
2022-08-05T23:49:00.973Z,3.45
2022-08-05T23:51:54.218Z,3.67
2022-08-05T23:54:30.269Z,3.78
2022-08-05T23:57:04.762Z,3.20
2022-08-05T23:59:37.669Z,3.20
